createdAt,value
2023-02-19T00:02:00.353Z,102131.63
2023-02-19T00:04:28.276Z,102139.09
2023-02-19T00:06:56.334Z,102135.53
2023-02-19T00:09:24.381Z,102145.06
2023-02-19T00:11:53.731Z,102148.34
2023-02-19T00:14:22.808Z,102147.66
2023-02-19T00:16:51.221Z,102146.63
2023-02-19T00:19:21.248Z,102151.56
2023-02-19T00:21:49.498Z,102141.56
2023-02-19T00:24:17.587Z,102140.63
2023-02-19T00:26:46.601Z,102154.50
2023-02-19T00:29:17.638Z,102158.56
2023-02-19T00:31:47.049Z,102167.38
2023-02-19T00:34:16.182Z,102167.97
2023-02-19T00:36:44.689Z,102175.50
2023-02-19T00:39:16.153Z,102175.56
2023-02-19T00:41:44.532Z,102174.00
2023-02-19T00:44:13.921Z,102190.63
2023-02-19T00:46:45.925Z,102180.97
2023-02-19T00:49:17.741Z,102181.66
2023-02-19T00:51:47.189Z,102176.94
2023-02-19T00:54:15.793Z,102185.94
2023-02-19T00:56:44.182Z,102188.31
2023-02-19T00:59:12.490Z,102198.19
2023-02-19T01:01:40.781Z,102197.66
2023-02-19T01:04:10.336Z,102203.59
2023-02-19T01:06:38.603Z,102201.41
2023-02-19T01:09:07.747Z,102200.75
2023-02-19T01:11:35.921Z,102206.97
2023-02-19T01:14:05.080Z,102208.03
2023-02-19T01:16:33.424Z,102211.06
2023-02-19T01:19:01.672Z,102218.19
2023-02-19T01:21:32.028Z,102217.31
2023-02-19T01:24:00.300Z,102209.84
2023-02-19T01:26:30.890Z,102213.25
2023-02-19T01:28:59.891Z,102219.34
2023-02-19T01:31:28.766Z,102224.09
2023-02-19T01:33:59.952Z,102229.25
2023-02-19T01:36:31.394Z,102223.00
2023-02-19T01:39:04.071Z,102221.31
2023-02-19T01:41:35.341Z,102230.78
2023-02-19T01:44:05.217Z,102230.13
2023-02-19T01:46:34.795Z,102221.44
2023-02-19T01:49:07.238Z,102223.84
2023-02-19T01:51:37.629Z,102232.19
2023-02-19T01:54:09.670Z,102233.50
2023-02-19T01:56:40.996Z,102242.66
2023-02-19T01:59:10.296Z,102238.31
2023-02-19T02:01:40.408Z,102229.97
2023-02-19T02:04:11.858Z,102233.94
2023-02-19T02:06:45.810Z,102230.53
2023-02-19T02:09:33.271Z,102240.19
2023-02-19T02:12:01.259Z,102230.91
2023-02-19T02:14:32.350Z,102248.19
2023-02-19T02:17:08.384Z,102237.88
2023-02-19T02:20:19.230Z,102232.66
2023-02-19T02:22:52.555Z,102245.50
2023-02-19T02:25:41.201Z,102241.28
2023-02-19T02:28:33.054Z,102243.50
2023-02-19T02:31:06.186Z,102253.66
2023-02-19T02:33:39.664Z,102253.84
2023-02-19T02:36:11.823Z,102252.03
2023-02-19T02:38:44.051Z,102246.59
2023-02-19T02:41:13.701Z,102249.97
2023-02-19T02:43:42.097Z,102254.06
2023-02-19T02:46:14.210Z,102250.81
2023-02-19T02:48:45.685Z,102247.84
2023-02-19T02:51:21.087Z,102261.19
2023-02-19T02:54:17.394Z,102260.16
2023-02-19T02:56:48.161Z,102261.53
2023-02-19T02:59:19.510Z,102274.38
2023-02-19T03:02:11.760Z,102270.50
2023-02-19T03:05:06.701Z,102273.41
2023-02-19T03:07:40.051Z,102274.59
2023-02-19T03:10:11.459Z,102278.97
2023-02-19T03:12:59.499Z,102276.13
2023-02-19T03:15:50.940Z,102274.06
2023-02-19T03:18:39.752Z,102285.91
2023-02-19T03:21:09.067Z,102279.81
2023-02-19T03:23:57.350Z,102277.78
2023-02-19T03:26:27.904Z,102277.47
2023-02-19T03:29:14.943Z,102285.56
2023-02-19T03:31:47.813Z,102289.31
2023-02-19T03:34:18.469Z,102290.28
2023-02-19T03:36:57.719Z,102292.34
2023-02-19T03:39:26.074Z,102288.25
2023-02-19T03:42:01.337Z,102284.88
2023-02-19T03:44:38.875Z,102295.56
2023-02-19T03:47:16.499Z,102301.31
2023-02-19T03:49:50.335Z,102311.47
2023-02-19T03:52:27.260Z,102306.22
2023-02-19T03:55:03.759Z,102311.63
2023-02-19T03:57:40.473Z,102315.72
2023-02-19T04:00:14.636Z,102317.91
2023-02-19T04:02:48.781Z,102320.09
2023-02-19T04:05:22.306Z,102330.28
2023-02-19T04:07:53.335Z,102327.84
2023-02-19T04:10:26.626Z,102332.75
2023-02-19T04:13:01.898Z,102345.25
2023-02-19T04:15:33.425Z,102333.59
2023-02-19T04:18:05.625Z,102343.06
2023-02-19T04:20:40.263Z,102353.56
2023-02-19T04:23:08.631Z,102348.66
2023-02-19T04:25:39.459Z,102348.50
2023-02-19T04:28:09.076Z,102364.19
2023-02-19T04:30:37.109Z,102373.84
2023-02-19T04:33:05.331Z,102371.47
2023-02-19T04:35:33.307Z,102380.97
2023-02-19T04:38:02.739Z,102390.94
2023-02-19T04:40:30.816Z,102379.78
2023-02-19T04:42:58.793Z,102403.97
2023-02-19T04:45:26.855Z,102392.53
2023-02-19T04:47:54.842Z,102398.88
2023-02-19T04:50:23.317Z,102403.31
2023-02-19T04:52:51.296Z,102413.31
2023-02-19T04:55:20.889Z,102410.22
2023-02-19T04:57:48.950Z,102392.53
2023-02-19T05:00:17.067Z,102408.75
2023-02-19T05:02:45.103Z,102411.09
2023-02-19T05:05:13.157Z,102410.44
2023-02-19T05:07:41.244Z,102410.91
2023-02-19T05:10:09.444Z,102421.03
2023-02-19T05:12:38.867Z,102429.72
2023-02-19T05:15:07.113Z,102419.53
2023-02-19T05:17:38.545Z,102412.41
2023-02-19T05:20:07.136Z,102413.09
2023-02-19T05:22:35.198Z,102421.72
2023-02-19T05:25:03.287Z,102424.59
2023-02-19T05:27:32.055Z,102421.22
2023-02-19T05:30:01.597Z,102437.09
2023-02-19T05:32:29.935Z,102444.19
2023-02-19T05:34:57.913Z,102442.50
2023-02-19T05:37:26.019Z,102438.41
2023-02-19T05:39:54.076Z,102435.91
2023-02-19T05:42:22.246Z,102437.09
2023-02-19T05:44:50.256Z,102433.69
2023-02-19T05:47:19.593Z,102435.91
2023-02-19T05:49:47.540Z,102434.72
2023-02-19T05:52:15.479Z,102444.47
2023-02-19T05:54:43.444Z,102449.22
2023-02-19T05:57:11.387Z,102447.38
2023-02-19T05:59:39.440Z,102437.72
2023-02-19T06:02:07.428Z,102435.53
2023-02-19T06:04:39.063Z,102431.63
2023-02-19T06:07:07.052Z,102438.56
2023-02-19T06:09:35.227Z,102444.50
2023-02-19T06:12:03.181Z,102439.06
2023-02-19T06:14:31.148Z,102440.75
2023-02-19T06:16:59.174Z,102445.16
2023-02-19T06:19:27.156Z,102447.53
2023-02-19T06:21:56.522Z,102453.41
2023-02-19T06:24:24.494Z,102459.34
2023-02-19T06:26:52.521Z,102462.03
2023-02-19T06:29:20.572Z,102467.13
2023-02-19T06:31:48.560Z,102467.78
2023-02-19T06:34:16.797Z,102469.84
2023-02-19T06:36:44.792Z,102467.25
2023-02-19T06:39:14.133Z,102455.59
2023-02-19T06:41:42.165Z,102463.88
2023-02-19T06:44:10.288Z,102471.28
2023-02-19T06:46:38.314Z,102476.16
2023-02-19T06:49:06.919Z,102475.50
2023-02-19T06:51:35.327Z,102484.22
2023-02-19T06:54:03.485Z,102483.06
2023-02-19T06:56:34.526Z,102505.56
2023-02-19T06:59:03.590Z,102497.22
2023-02-19T07:01:33.229Z,102493.50
2023-02-19T07:04:01.265Z,102498.25
2023-02-19T07:06:29.693Z,102501.63
2023-02-19T07:08:59.219Z,102510.06
2023-02-19T07:11:30.028Z,102499.41
2023-02-19T07:14:00.882Z,102516.81
2023-02-19T07:16:29.330Z,102518.28
2023-02-19T07:18:57.867Z,102515.41
2023-02-19T07:21:27.024Z,102535.22
2023-02-19T07:23:55.388Z,102537.91
2023-02-19T07:26:24.061Z,102539.91
2023-02-19T07:28:52.875Z,102529.94
2023-02-19T07:31:24.934Z,102532.31
2023-02-19T07:33:53.508Z,102541.59
2023-02-19T07:36:22.670Z,102554.97
2023-02-19T07:38:56.003Z,102569.47
2023-02-19T07:41:24.926Z,102564.31
2023-02-19T07:43:54.143Z,102556.91
2023-02-19T07:46:23.565Z,102550.63
2023-02-19T07:48:51.975Z,102550.28
2023-02-19T07:51:21.228Z,102563.53
2023-02-19T07:53:51.320Z,102585.31
2023-02-19T07:56:20.440Z,102592.38
2023-02-19T07:58:48.411Z,102583.06
2023-02-19T08:01:18.163Z,102579.88
2023-02-19T08:03:48.214Z,102591.41
2023-02-19T08:06:17.463Z,102577.38
2023-02-19T08:08:45.453Z,102583.03
2023-02-19T08:11:30.931Z,102600.88
2023-02-19T08:13:59.057Z,102596.69
2023-02-19T08:16:41.891Z,102607.88
2023-02-19T08:19:12.151Z,102604.00
2023-02-19T08:21:40.179Z,102610.13
2023-02-19T08:24:08.248Z,102629.38
2023-02-19T08:26:36.799Z,102642.25
2023-02-19T08:29:05.469Z,102663.59
2023-02-19T08:31:35.046Z,102661.25
2023-02-19T08:34:03.642Z,102662.09
2023-02-19T08:36:33.116Z,102658.94
2023-02-19T08:39:01.172Z,102659.25
2023-02-19T08:41:29.227Z,102648.63
2023-02-19T08:43:57.205Z,102647.03
2023-02-19T08:46:25.168Z,102660.28
2023-02-19T08:48:53.211Z,102661.31
2023-02-19T08:51:21.218Z,102659.69
2023-02-19T08:53:50.578Z,102657.97
2023-02-19T08:56:18.679Z,102654.47
2023-02-19T08:58:47.046Z,102645.34
2023-02-19T09:01:18.289Z,102640.13
2023-02-19T09:04:13.043Z,102635.88
2023-02-19T09:06:41.101Z,102634.41
2023-02-19T09:09:10.902Z,102640.13
2023-02-19T09:11:40.131Z,102648.97
2023-02-19T09:14:08.490Z,102669.47
2023-02-19T09:16:36.584Z,102667.66
2023-02-19T09:19:04.957Z,102671.00
2023-02-19T09:21:33.008Z,102680.72
2023-02-19T09:24:00.934Z,102687.34
2023-02-19T09:26:30.319Z,102686.50
2023-02-19T09:28:58.327Z,102692.63
2023-02-19T09:31:26.461Z,102687.22
2023-02-19T09:33:54.461Z,102691.28
2023-02-19T09:36:22.552Z,102683.31
2023-02-19T09:38:50.606Z,102687.78
2023-02-19T09:41:26.586Z,102717.63
2023-02-19T09:43:56.513Z,102734.34
2023-02-19T09:46:31.748Z,102720.19
2023-02-19T09:49:05.382Z,102722.41
2023-02-19T09:51:35.692Z,102718.72
2023-02-19T09:54:07.075Z,102732.47
2023-02-19T09:56:35.694Z,102740.47
2023-02-19T09:59:06.149Z,102754.91
2023-02-19T10:01:38.742Z,102751.53
2023-02-19T10:04:07.039Z,102742.56
2023-02-19T10:06:36.364Z,102732.06
2023-02-19T10:09:18.844Z,102737.31
2023-02-19T10:11:48.358Z,102737.00
2023-02-19T10:14:22.658Z,102730.22
2023-02-19T10:16:51.456Z,102740.88
2023-02-19T10:19:19.558Z,102737.53
2023-02-19T10:21:47.831Z,102731.41
2023-02-19T10:24:22.588Z,102726.00
2023-02-19T10:26:51.362Z,102724.59
2023-02-19T10:29:22.065Z,102732.06
2023-02-19T10:31:52.149Z,102733.91
2023-02-19T10:34:23.596Z,102734.91
2023-02-19T10:36:53.555Z,102735.69
2023-02-19T10:39:42.872Z,102743.97
2023-02-19T10:42:19.387Z,102747.56
2023-02-19T10:44:52.580Z,102733.09
2023-02-19T10:47:23.832Z,102745.38
2023-02-19T10:49:53.073Z,102743.94
2023-02-19T10:52:25.099Z,102745.72
2023-02-19T10:54:54.629Z,102745.75
2023-02-19T10:57:32.843Z,102741.13
2023-02-19T11:00:04.257Z,102748.31
2023-02-19T11:02:33.457Z,102745.44
2023-02-19T11:05:08.491Z,102754.25
2023-02-19T11:07:38.305Z,102749.97
2023-02-19T11:10:08.844Z,102755.59
2023-02-19T11:12:36.931Z,102763.19
2023-02-19T11:15:22.299Z,102763.69
2023-02-19T11:17:56.292Z,102756.28
2023-02-19T11:20:24.779Z,102759.09
2023-02-19T11:22:53.162Z,102756.22
2023-02-19T11:25:25.640Z,102757.63
2023-02-19T11:28:07.152Z,102753.41
2023-02-19T11:30:44.057Z,102761.16
2023-02-19T11:33:23.396Z,102763.28
2023-02-19T11:35:54.827Z,102767.56
2023-02-19T11:38:23.117Z,102763.88
2023-02-19T11:40:56.565Z,102770.44
2023-02-19T11:43:35.004Z,102772.72
2023-02-19T11:46:10.784Z,102775.78
2023-02-19T11:48:56.939Z,102762.03
2023-02-19T11:51:38.998Z,102753.22
2023-02-19T11:54:31.552Z,102751.03
2023-02-19T11:57:08.266Z,102745.44
2023-02-19T11:59:43.982Z,102737.91
2023-02-19T12:02:46.121Z,102724.16
2023-02-19T12:05:41.795Z,102736.59
2023-02-19T12:08:44.416Z,102727.59
2023-02-19T12:11:25.403Z,102732.59
2023-02-19T12:14:06.027Z,102729.41
2023-02-19T12:16:40.955Z,102713.47
2023-02-19T12:19:26.706Z,102720.69
2023-02-19T12:22:13.252Z,102714.72
2023-02-19T12:25:01.014Z,102716.78
2023-02-19T12:27:42.375Z,102718.13
2023-02-19T12:30:33.832Z,102702.44
2023-02-19T12:33:33.645Z,102696.53
2023-02-19T12:36:12.907Z,102698.25
2023-02-19T12:38:45.390Z,102694.75
2023-02-19T12:41:27.704Z,102698.59
2023-02-19T12:44:00.242Z,102705.44
2023-02-19T12:46:33.250Z,102702.56
2023-02-19T12:49:10.793Z,102704.06
2023-02-19T12:51:45.892Z,102704.16
2023-02-19T12:54:18.018Z,102714.22
2023-02-19T12:56:51.314Z,102720.03
2023-02-19T12:59:25.413Z,102715.44
2023-02-19T13:01:58.214Z,102697.94
2023-02-19T13:04:34.023Z,102701.59
2023-02-19T13:07:10.669Z,102708.41
2023-02-19T13:09:45.008Z,102691.56
2023-02-19T13:12:40.933Z,102696.88
2023-02-19T13:15:17.445Z,102697.91
2023-02-19T13:17:51.472Z,102699.03
2023-02-19T13:20:27.326Z,102700.25
2023-02-19T13:23:22.196Z,102698.47
2023-02-19T13:26:03.726Z,102695.53
2023-02-19T13:29:05.087Z,102694.50
2023-02-19T13:31:43.053Z,102678.13
2023-02-19T13:34:18.768Z,102674.13
2023-02-19T13:37:12.627Z,102675.47
2023-02-19T13:39:50.110Z,102691.19
2023-02-19T13:42:27.341Z,102678.88
2023-02-19T13:44:58.064Z,102690.19
2023-02-19T13:47:49.063Z,102686.16
2023-02-19T13:50:24.033Z,102690.78
2023-02-19T13:52:52.745Z,102692.78
2023-02-19T13:55:52.512Z,102688.56
2023-02-19T13:58:55.164Z,102692.28
2023-02-19T14:02:13.448Z,102697.06
2023-02-19T14:04:51.114Z,102673.81
2023-02-19T14:07:35.285Z,102666.00
2023-02-19T14:10:04.360Z,102657.38
2023-02-19T14:12:38.425Z,102651.09
2023-02-19T14:15:43.975Z,102651.91
2023-02-19T14:18:43.924Z,102663.38
2023-02-19T14:21:25.613Z,102659.34
2023-02-19T14:23:56.819Z,102658.53
2023-02-19T14:26:26.535Z,102647.09
2023-02-19T14:28:56.288Z,102644.44
2023-02-19T14:31:37.383Z,102641.91
2023-02-19T14:34:14.748Z,102638.28
2023-02-19T14:36:48.646Z,102629.38
2023-02-19T14:39:20.794Z,102628.13
2023-02-19T14:41:52.102Z,102643.56
2023-02-19T14:44:25.017Z,102639.72
2023-02-19T14:46:58.654Z,102642.56
2023-02-19T14:49:31.301Z,102644.56
2023-02-19T14:52:02.847Z,102638.81
2023-02-19T14:54:39.924Z,102637.94
2023-02-19T14:57:16.029Z,102635.63
2023-02-19T14:59:57.406Z,102647.44
2023-02-19T15:02:27.190Z,102642.63
2023-02-19T15:04:56.323Z,102634.69
2023-02-19T15:07:27.769Z,102639.00
2023-02-19T15:10:02.933Z,102630.72
2023-02-19T15:12:45.563Z,102644.16
2023-02-19T15:15:19.155Z,102637.66
2023-02-19T15:17:47.757Z,102636.44
2023-02-19T15:20:20.575Z,102635.56
2023-02-19T15:22:48.851Z,102622.03
2023-02-19T15:25:19.850Z,102626.09
2023-02-19T15:27:47.885Z,102621.47
2023-02-19T15:30:25.866Z,102616.66
2023-02-19T15:32:55.834Z,102610.59
2023-02-19T15:35:25.250Z,102613.16
2023-02-19T15:37:55.096Z,102606.34
2023-02-19T15:40:29.537Z,102605.00
2023-02-19T15:42:58.946Z,102599.16
2023-02-19T15:45:32.587Z,102601.63
2023-02-19T15:48:07.065Z,102611.84
2023-02-19T15:50:36.814Z,102593.50
2023-02-19T15:53:13.186Z,102591.81
2023-02-19T15:55:46.380Z,102589.88
2023-02-19T15:58:20.317Z,102605.50
2023-02-19T16:00:53.859Z,102584.97
2023-02-19T16:03:24.284Z,102574.56
2023-02-19T16:06:04.307Z,102571.34
2023-02-19T16:08:33.564Z,102570.31
2023-02-19T16:11:03.500Z,102568.31
2023-02-19T16:14:45.957Z,102574.91
2023-02-19T16:17:20.686Z,102566.97
2023-02-19T16:19:53.271Z,102557.34
2023-02-19T16:22:24.343Z,102562.81
2023-02-19T16:24:54.860Z,102551.19
2023-02-19T16:28:37.197Z,102541.25
2023-02-19T16:31:07.092Z,102559.75
2023-02-19T16:33:42.008Z,102555.03
2023-02-19T16:36:37.894Z,102545.94
2023-02-19T16:39:24.067Z,102556.38
2023-02-19T16:42:22.379Z,102544.56
2023-02-19T16:44:51.730Z,102552.63
2023-02-19T16:47:26.499Z,102555.09
2023-02-19T16:49:56.777Z,102554.00
2023-02-19T16:52:25.249Z,102551.03
2023-02-19T16:54:53.321Z,102544.19
2023-02-19T16:57:21.668Z,102545.75
2023-02-19T16:59:50.056Z,102548.59
2023-02-19T17:02:25.467Z,102547.13
2023-02-19T17:04:55.781Z,102551.47
2023-02-19T17:07:24.446Z,102553.81
2023-02-19T17:09:52.540Z,102564.28
2023-02-19T17:12:24.638Z,102561.94
2023-02-19T17:14:52.671Z,102553.22
2023-02-19T17:17:20.843Z,102554.00
2023-02-19T17:19:48.999Z,102558.50
2023-02-19T17:22:18.605Z,102556.81
2023-02-19T17:24:48.354Z,102561.72
2023-02-19T17:27:41.444Z,102560.16
2023-02-19T17:30:13.145Z,102560.31
2023-02-19T17:32:41.199Z,102570.31
2023-02-19T17:35:09.674Z,102572.25
2023-02-19T17:37:39.125Z,102578.44
2023-02-19T17:40:31.762Z,102569.63
2023-02-19T17:43:00.130Z,102568.78
2023-02-19T17:45:28.484Z,102568.41
2023-02-19T17:47:56.681Z,102559.78
2023-02-19T17:50:27.092Z,102560.63
2023-02-19T17:52:56.653Z,102570.03
2023-02-19T17:55:25.074Z,102569.38
2023-02-19T17:57:54.180Z,102575.00
2023-02-19T18:00:25.060Z,102577.06
2023-02-19T18:04:13.346Z,102579.69
2023-02-19T18:06:42.926Z,102584.28
2023-02-19T18:09:15.325Z,102596.91
2023-02-19T18:11:46.487Z,102586.22
2023-02-19T18:14:14.656Z,102586.78
2023-02-19T18:16:49.374Z,102578.31
2023-02-19T18:19:18.193Z,102581.41
2023-02-19T18:21:46.398Z,102585.47
2023-02-19T18:24:15.968Z,102582.31
2023-02-19T18:26:44.513Z,102574.34
2023-02-19T18:29:12.805Z,102577.72
2023-02-19T18:31:40.961Z,102568.91
2023-02-19T18:34:18.304Z,102572.84
2023-02-19T18:36:47.417Z,102567.25
2023-02-19T18:39:19.478Z,102565.94
2023-02-19T18:41:48.839Z,102577.13
2023-02-19T18:44:20.596Z,102566.97
2023-02-19T18:46:48.938Z,102551.00
2023-02-19T18:49:45.908Z,102545.56
2023-02-19T18:52:14.134Z,102549.34
2023-02-19T18:55:32.641Z,102550.06
2023-02-19T18:58:02.109Z,102543.66
2023-02-19T19:00:30.157Z,102534.00
2023-02-19T19:03:23.616Z,102533.81
2023-02-19T19:05:52.146Z,102547.78
2023-02-19T19:08:20.147Z,102539.38
2023-02-19T19:12:03.343Z,102549.94
2023-02-19T19:14:32.783Z,102576.47
2023-02-19T19:17:01.198Z,102571.16
2023-02-19T19:20:19.467Z,102582.38
2023-02-19T19:22:50.411Z,102572.25
2023-02-19T19:25:19.157Z,102578.88
2023-02-19T19:27:47.424Z,102576.16
2023-02-19T19:30:17.829Z,102577.56
2023-02-19T19:32:48.282Z,102571.97
2023-02-19T19:35:17.069Z,102583.50
2023-02-19T19:37:45.074Z,102585.75
2023-02-19T19:40:13.610Z,102586.59
2023-02-19T19:42:43.017Z,102585.06
2023-02-19T19:45:12.652Z,102582.19
2023-02-19T19:47:42.115Z,102575.28
2023-02-19T19:50:12.141Z,102584.25
2023-02-19T19:52:40.292Z,102587.50
2023-02-19T19:55:09.010Z,102590.03
2023-02-19T19:57:39.560Z,102586.47
2023-02-19T20:00:09.622Z,102585.13
2023-02-19T20:02:44.983Z,102589.72
2023-02-19T20:05:13.089Z,102577.97
2023-02-19T20:07:55.478Z,102585.16
2023-02-19T20:10:26.997Z,102583.47
2023-02-19T20:12:55.079Z,102591.63
2023-02-19T20:15:29.284Z,102586.56
2023-02-19T20:17:58.839Z,102588.91
2023-02-19T20:20:26.881Z,102591.63
2023-02-19T20:22:55.160Z,102583.16
2023-02-19T20:25:24.669Z,102585.88
2023-02-19T20:27:54.033Z,102593.72
2023-02-19T20:30:24.495Z,102596.44
2023-02-19T20:32:53.527Z,102592.84
2023-02-19T20:35:26.508Z,102584.38
2023-02-19T20:37:55.716Z,102584.91
2023-02-19T20:40:27.418Z,102583.03
2023-02-19T20:42:55.488Z,102578.47
2023-02-19T20:45:23.575Z,102570.31
2023-02-19T20:47:51.546Z,102569.00
2023-02-19T20:50:19.942Z,102564.22
2023-02-19T20:52:49.578Z,102559.84
2023-02-19T20:55:17.916Z,102558.31
2023-02-19T20:57:47.105Z,102571.72
2023-02-19T21:00:17.043Z,102559.50
2023-02-19T21:02:45.087Z,102564.06
2023-02-19T21:05:13.503Z,102566.78
2023-02-19T21:07:41.512Z,102567.63
2023-02-19T21:10:11.868Z,102566.28
2023-02-19T21:12:40.770Z,102562.22
2023-02-19T21:15:09.907Z,102577.44
2023-02-19T21:17:37.911Z,102573.53
2023-02-19T21:20:07.034Z,102582.84
2023-02-19T21:22:35.688Z,102575.06
2023-02-19T21:25:03.684Z,102568.66
2023-02-19T21:27:32.987Z,102578.09
2023-02-19T21:30:01.161Z,102566.44
2023-02-19T21:32:29.277Z,102567.28
2023-02-19T21:35:22.998Z,102573.72
2023-02-19T21:37:51.079Z,102580.28
2023-02-19T21:40:20.013Z,102582.19
2023-02-19T21:42:49.420Z,102586.91
2023-02-19T21:45:17.612Z,102590.09
2023-02-19T21:47:45.667Z,102587.03
2023-02-19T21:50:14.003Z,102593.31
2023-02-19T21:52:43.399Z,102586.53
2023-02-19T21:55:11.467Z,102596.53
2023-02-19T21:57:39.692Z,102597.34
2023-02-19T22:00:10.437Z,102603.81
2023-02-19T22:02:38.523Z,102605.81
2023-02-19T22:05:07.433Z,102604.63
2023-02-19T22:07:35.472Z,102609.31
2023-02-19T22:10:03.400Z,102612.84
2023-02-19T22:12:31.398Z,102610.13
2023-02-19T22:14:59.359Z,102618.94
2023-02-19T22:17:28.822Z,102619.28
2023-02-19T22:19:56.823Z,102613.50
2023-02-19T22:22:24.949Z,102620.94
2023-02-19T22:24:52.996Z,102620.88
2023-02-19T22:27:21.006Z,102617.44
2023-02-19T22:29:49.386Z,102634.19
2023-02-19T22:32:17.859Z,102636.34
2023-02-19T22:34:47.333Z,102638.66
2023-02-19T22:37:15.364Z,102635.78
2023-02-19T22:39:43.340Z,102633.69
2023-02-19T22:42:12.843Z,102634.53
2023-02-19T22:44:43.541Z,102637.38
2023-02-19T22:47:11.680Z,102630.78
2023-02-19T22:49:40.842Z,102626.41
2023-02-19T22:52:11.623Z,102620.47
2023-02-19T22:54:40.280Z,102625.28
2023-02-19T22:57:08.375Z,102621.91
2023-02-19T22:59:36.408Z,102620.88
2023-02-19T23:02:04.741Z,102612.53
2023-02-19T23:04:32.726Z,102614.78
2023-02-19T23:07:00.915Z,102611.25
2023-02-19T23:09:30.737Z,102609.00
2023-02-19T23:12:03.092Z,102596.56
2023-02-19T23:14:31.317Z,102606.09
2023-02-19T23:16:59.505Z,102605.84
2023-02-19T23:19:28.065Z,102608.41
2023-02-19T23:21:56.134Z,102598.38
2023-02-19T23:24:24.177Z,102598.41
2023-02-19T23:26:54.839Z,102603.34
2023-02-19T23:29:25.331Z,102603.72
2023-02-19T23:31:53.849Z,102600.94
2023-02-19T23:34:22.582Z,102599.03
2023-02-19T23:36:51.578Z,102599.34
2023-02-19T23:39:22.046Z,102596.03
2023-02-19T23:41:51.789Z,102591.31
2023-02-19T23:44:22.254Z,102597.81
2023-02-19T23:46:51.407Z,102596.66
2023-02-19T23:49:20.086Z,102594.00
2023-02-19T23:51:48.343Z,102584.13
2023-02-19T23:54:16.837Z,102584.44
2023-02-19T23:56:44.993Z,102588.16
2023-02-19T23:59:13.392Z,102589.06
